createdAt,value
2019-05-07T00:03:39.087Z,73.37
2019-05-07T00:08:44.917Z,70.50
2019-05-07T00:13:47.387Z,71.05
2019-05-07T00:18:52.414Z,70.88
2019-05-07T00:23:55.458Z,71.83
2019-05-07T00:28:58.667Z,71.24
2019-05-07T00:34:02.881Z,71.82
2019-05-07T00:39:16.647Z,70.46
2019-05-07T00:44:21.970Z,70.67
2019-05-07T00:49:26.904Z,71.51
2019-05-07T00:54:32.495Z,70.78
2019-05-07T00:59:35.040Z,71.41
2019-05-07T01:04:37.901Z,70.11
2019-05-07T01:09:43.051Z,71.61
2019-05-07T01:14:46.332Z,71.96
2019-05-07T01:19:49.210Z,73.04
2019-05-07T01:24:53.439Z,73.24
2019-05-07T01:29:56.651Z,75.09
2019-05-07T01:35:03.403Z,73.22
2019-05-07T01:40:06.382Z,73.64
2019-05-07T01:45:10.413Z,72.81
2019-05-07T01:50:15.891Z,72.45
2019-05-07T01:55:19.047Z,73.03
2019-05-07T02:00:22.602Z,73.08
2019-05-07T02:05:44.310Z,73.07
2019-05-07T02:10:56.218Z,73.45
2019-05-07T02:16:01.874Z,73.55
2019-05-07T02:21:03.972Z,72.59
2019-05-07T02:26:07.467Z,72.41
2019-05-07T02:31:09.971Z,72.69
2019-05-07T02:36:14.275Z,74.67
2019-05-07T02:41:23.310Z,73.78
2019-05-07T02:46:57.605Z,72.95
2019-05-07T02:52:06.683Z,73.46
2019-05-07T02:57:09.627Z,72.87
2019-05-07T03:02:14.460Z,72.35
2019-05-07T03:07:17.995Z,70.96
2019-05-07T03:12:23.554Z,72.54
2019-05-07T03:17:25.080Z,71.84
2019-05-07T03:22:28.557Z,73.47
2019-05-07T03:27:34.084Z,71.37
2019-05-07T03:32:46.709Z,70.67
2019-05-07T03:37:46.351Z,70.76
2019-05-07T03:42:49.904Z,71.09
2019-05-07T03:48:13.847Z,71.18
2019-05-07T03:53:17.214Z,71.08
2019-05-07T03:58:23.540Z,71.93
2019-05-07T04:03:26.806Z,71.11
2019-05-07T04:08:33.076Z,71.01
2019-05-07T04:13:35.172Z,71.70
2019-05-07T04:18:38.280Z,70.72
2019-05-07T04:23:43.645Z,70.95
2019-05-07T04:28:54.604Z,70.63
2019-05-07T04:34:03.673Z,70.30
2019-05-07T04:39:08.309Z,70.92
2019-05-07T04:44:13.956Z,69.37
2019-05-07T04:49:16.602Z,69.58
2019-05-07T04:54:19.517Z,70.07
2019-05-07T04:59:23.788Z,70.28
2019-05-07T05:04:33.981Z,69.72
2019-05-07T05:09:33.334Z,68.66
2019-05-07T05:14:36.489Z,67.86
2019-05-07T05:19:40.097Z,67.65
2019-05-07T05:24:45.304Z,69.48
2019-05-07T05:29:48.387Z,70.62
2019-05-07T05:34:52.088Z,71.10
2019-05-07T05:40:05.651Z,75.67
2019-05-07T05:45:02.083Z,74.76
2019-05-07T05:50:08.017Z,74.37
2019-05-07T05:55:14.265Z,76.18
2019-05-07T06:00:53.033Z,78.43
2019-05-07T06:06:18.881Z,78.94
2019-05-07T06:11:48.326Z,77.00
2019-05-07T06:17:12.995Z,75.47
2019-05-07T06:22:33.958Z,78.00
2019-05-07T06:27:37.254Z,75.82
2019-05-07T06:32:42.749Z,75.17
2019-05-07T06:37:46.587Z,75.34
2019-05-07T06:42:56.952Z,72.03
2019-05-07T06:48:00.122Z,70.83
2019-05-07T06:53:03.177Z,70.32
2019-05-07T06:58:07.224Z,70.86
2019-05-07T07:03:30.013Z,68.71
2019-05-07T07:08:41.949Z,66.99
2019-05-07T07:13:45.253Z,67.45
2019-05-07T07:18:52.503Z,67.04
2019-05-07T07:23:53.314Z,69.04
2019-05-07T07:28:55.906Z,67.87
2019-05-07T07:34:02.238Z,69.56
2019-05-07T07:39:07.527Z,64.92
2019-05-07T07:44:10.512Z,63.28
2019-05-07T07:49:15.253Z,62.57
2019-05-07T07:54:18.610Z,62.52
2019-05-07T07:59:32.847Z,58.39
2019-05-07T08:04:35.984Z,58.25
2019-05-07T08:09:39.487Z,60.27
2019-05-07T08:14:42.860Z,60.02
2019-05-07T08:19:48.182Z,59.87
2019-05-07T08:24:52.001Z,61.35
2019-05-07T08:29:55.062Z,64.82
2019-05-07T08:35:03.537Z,65.41
2019-05-07T08:40:07.460Z,62.33
2019-05-07T08:45:29.257Z,59.55
2019-05-07T08:50:32.681Z,56.48
2019-05-07T08:55:36.449Z,52.19
2019-05-07T09:00:41.782Z,50.35
2019-05-07T09:05:45.627Z,51.25
2019-05-07T09:10:48.948Z,52.19
2019-05-07T09:15:52.922Z,51.37
2019-05-07T09:20:56.398Z,51.82
2019-05-07T09:25:59.600Z,48.93
2019-05-07T09:31:12.370Z,49.28
2019-05-07T09:36:22.748Z,50.24
2019-05-07T09:41:28.643Z,49.61
2019-05-07T09:46:32.666Z,50.41
2019-05-07T09:51:35.412Z,55.03
2019-05-07T09:56:38.623Z,56.26
2019-05-07T10:01:41.964Z,57.87
2019-05-07T10:06:45.224Z,59.73
2019-05-07T10:11:54.598Z,61.69
2019-05-07T10:17:08.497Z,60.34
2019-05-07T10:22:12.670Z,58.90
2019-05-07T10:27:16.295Z,57.26
2019-05-07T10:32:19.279Z,55.89
2019-05-07T10:37:22.809Z,63.54
2019-05-07T10:42:25.372Z,67.13
2019-05-07T10:47:46.449Z,68.80
2019-05-07T10:52:49.632Z,67.51
2019-05-07T10:57:53.663Z,62.75
2019-05-07T11:02:57.000Z,62.77
2019-05-07T11:08:02.270Z,62.01
2019-05-07T11:13:05.636Z,57.37
2019-05-07T11:18:21.720Z,56.92
2019-05-07T11:23:25.167Z,56.66
2019-05-07T11:28:28.108Z,57.56
2019-05-07T11:33:32.631Z,57.79
2019-05-07T11:38:36.198Z,51.05
2019-05-07T11:43:55.549Z,47.24
2019-05-07T11:49:07.113Z,50.25
2019-05-07T11:54:12.606Z,52.19
2019-05-07T11:59:16.474Z,52.75
2019-05-07T12:04:19.666Z,49.19
2019-05-07T12:09:23.259Z,49.44
2019-05-07T12:14:31.543Z,47.45
2019-05-07T12:19:33.082Z,42.52
2019-05-07T12:24:36.138Z,40.95
2019-05-07T12:29:39.448Z,38.43
2019-05-07T12:34:46.666Z,40.56
2019-05-07T12:39:50.007Z,37.77
2019-05-07T12:44:53.160Z,36.58
2019-05-07T12:49:55.710Z,40.12
2019-05-07T12:55:05.758Z,42.18
2019-05-07T13:00:27.156Z,43.91
2019-05-07T13:05:30.431Z,43.58
2019-05-07T13:10:34.871Z,40.43
2019-05-07T13:15:37.923Z,41.85
2019-05-07T13:20:41.255Z,41.56
2019-05-07T13:25:44.433Z,40.42
2019-05-07T13:30:47.407Z,38.29
2019-05-07T13:35:52.207Z,38.26
2019-05-07T13:41:24.129Z,37.20
2019-05-07T13:46:28.305Z,39.00
2019-05-07T13:51:33.870Z,36.67
2019-05-07T13:56:36.787Z,36.08
2019-05-07T14:01:57.034Z,36.90
2019-05-07T14:07:01.929Z,34.42
2019-05-07T14:12:05.423Z,33.85
2019-05-07T14:17:09.455Z,30.45
2019-05-07T14:22:18.653Z,31.89
2019-05-07T14:27:17.906Z,31.56
2019-05-07T14:32:41.926Z,35.27
2019-05-07T14:37:48.278Z,35.79
2019-05-07T14:42:58.405Z,38.19
2019-05-07T14:48:02.943Z,37.25
2019-05-07T14:53:06.297Z,38.77
2019-05-07T14:58:09.629Z,38.62
2019-05-07T15:03:12.956Z,40.51
2019-05-07T15:08:16.198Z,42.29
2019-05-07T15:13:18.839Z,38.34
2019-05-07T15:18:32.110Z,35.46
2019-05-07T15:23:36.094Z,35.07
2019-05-07T15:28:41.763Z,35.44
2019-05-07T15:33:46.291Z,33.19
2019-05-07T15:38:49.521Z,32.89
2019-05-07T15:43:52.954Z,33.00
2019-05-07T15:48:56.461Z,33.86
2019-05-07T15:54:00.503Z,31.80
2019-05-07T15:59:05.385Z,32.89
2019-05-07T16:04:19.987Z,33.75
2019-05-07T16:09:15.776Z,34.79
2019-05-07T16:14:26.788Z,36.13
2019-05-07T16:19:31.787Z,36.72
2019-05-07T16:24:34.905Z,36.00
2019-05-07T16:29:38.291Z,34.92
2019-05-07T16:34:42.955Z,36.96
2019-05-07T16:39:46.366Z,34.97
2019-05-07T16:44:49.575Z,34.74
2019-05-07T16:49:52.482Z,34.99
2019-05-07T16:54:55.912Z,34.45
2019-05-07T16:59:58.884Z,37.05
2019-05-07T17:05:05.838Z,35.62
2019-05-07T17:10:11.561Z,35.25
2019-05-07T17:15:15.244Z,35.32
2019-05-07T17:20:18.690Z,37.92
2019-05-07T17:25:37.495Z,36.73
2019-05-07T17:30:42.103Z,38.92
2019-05-07T17:35:46.239Z,38.88
2019-05-07T17:40:51.971Z,40.50
2019-05-07T17:45:55.257Z,41.24
2019-05-07T17:51:23.858Z,42.22
2019-05-07T17:56:27.201Z,43.23
2019-05-07T18:02:02.011Z,43.80
2019-05-07T18:07:05.242Z,43.85
2019-05-07T18:12:08.544Z,44.92
2019-05-07T18:17:33.749Z,45.16
2019-05-07T18:22:37.466Z,45.77
2019-05-07T18:27:42.078Z,46.64
2019-05-07T18:32:52.065Z,47.96
2019-05-07T18:37:55.826Z,48.01
2019-05-07T18:42:59.047Z,48.28
2019-05-07T18:48:02.461Z,48.41
2019-05-07T18:53:06.464Z,48.67
2019-05-07T18:58:10.127Z,48.66
2019-05-07T19:03:15.399Z,49.30
2019-05-07T19:08:19.078Z,49.99
2019-05-07T19:13:22.811Z,51.20
2019-05-07T19:18:26.604Z,52.15
2019-05-07T19:23:33.046Z,52.26
2019-05-07T19:28:37.275Z,52.86
2019-05-07T19:33:41.929Z,54.73
2019-05-07T19:38:46.807Z,55.39
2019-05-07T19:43:52.630Z,55.01
2019-05-07T19:48:55.284Z,55.56
2019-05-07T19:53:58.692Z,56.09
2019-05-07T19:59:02.241Z,56.37
2019-05-07T20:04:05.683Z,57.89
2019-05-07T20:09:13.059Z,58.37
2019-05-07T20:14:16.705Z,58.34
2019-05-07T20:19:22.855Z,59.87
2019-05-07T20:24:26.444Z,59.96
2019-05-07T20:29:29.510Z,59.66
2019-05-07T20:34:33.480Z,59.62
2019-05-07T20:39:36.830Z,60.37
2019-05-07T20:44:39.949Z,61.02
2019-05-07T20:49:43.234Z,63.66
2019-05-07T20:54:58.420Z,62.78
2019-05-07T21:00:02.740Z,62.64
2019-05-07T21:05:06.565Z,62.66
2019-05-07T21:10:09.472Z,63.28
2019-05-07T21:15:13.162Z,62.79
2019-05-07T21:20:16.813Z,62.87
2019-05-07T21:25:19.326Z,62.94
2019-05-07T21:30:23.449Z,62.11
2019-05-07T21:35:25.982Z,62.40
2019-05-07T21:40:29.427Z,63.47
2019-05-07T21:45:32.937Z,64.83
2019-05-07T21:50:36.779Z,64.22
2019-05-07T21:56:02.529Z,63.73
2019-05-07T22:01:18.032Z,63.34
2019-05-07T22:06:22.646Z,63.59
2019-05-07T22:11:26.518Z,63.05
2019-05-07T22:16:29.697Z,63.78
2019-05-07T22:21:34.262Z,63.50
2019-05-07T22:26:37.451Z,62.32
2019-05-07T22:31:46.826Z,60.39
2019-05-07T22:36:49.707Z,58.96
2019-05-07T22:41:52.608Z,61.37
2019-05-07T22:46:57.779Z,61.22
2019-05-07T22:52:02.330Z,60.74
2019-05-07T22:57:13.979Z,61.54
2019-05-07T23:02:16.286Z,61.39
2019-05-07T23:07:18.803Z,59.98
2019-05-07T23:12:22.144Z,57.82
2019-05-07T23:17:25.834Z,58.25
2019-05-07T23:22:29.379Z,59.85
2019-05-07T23:27:32.691Z,59.33
2019-05-07T23:32:36.405Z,58.34
2019-05-07T23:37:39.402Z,58.58
2019-05-07T23:42:43.504Z,59.37
2019-05-07T23:47:46.042Z,60.30
2019-05-07T23:52:48.918Z,63.95
2019-05-07T23:57:52.490Z,65.65
